sensor_id;sensor_type;location;lat;lon;timestamp;P1;durP1;ratioP1;P2;durP2;ratioP2
8397;SDS011;4236;54.504;9.588;2023-04-22T00:01:31;5.43;;;4.90;;
8397;SDS011;4236;54.504;9.588;2023-04-22T00:03:59;8.03;;;5.27;;
8397;SDS011;4236;54.504;9.588;2023-04-22T00:06:27;5.40;;;4.70;;
8397;SDS011;4236;54.504;9.588;2023-04-22T00:08:56;5.13;;;4.80;;
8397;SDS011;4236;54.504;9.588;2023-04-22T00:11:24;8.53;;;6.97;;
8397;SDS011;4236;54.504;9.588;2023-04-22T00:13:53;5.93;;;5.43;;
8397;SDS011;4236;54.504;9.588;2023-04-22T00:16:21;5.80;;;5.17;;
8397;SDS011;4236;54.504;9.588;2023-04-22T00:18:49;5.03;;;4.60;;
8397;SDS011;4236;54.504;9.588;2023-04-22T00:21:16;6.70;;;5.00;;
8397;SDS011;4236;54.504;9.588;2023-04-22T00:23:44;5.03;;;4.70;;
8397;SDS011;4236;54.504;9.588;2023-04-22T00:26:12;6.13;;;5.63;;
8397;SDS011;4236;54.504;9.588;2023-04-22T00:28:40;6.20;;;5.57;;
8397;SDS011;4236;54.504;9.588;2023-04-22T00:31:10;5.93;;;5.33;;
8397;SDS011;4236;54.504;9.588;2023-04-22T00:33:38;5.80;;;5.20;;
8397;SDS011;4236;54.504;9.588;2023-04-22T00:36:06;8.53;;;6.87;;
8397;SDS011;4236;54.504;9.588;2023-04-22T00:38:34;5.63;;;5.23;;
8397;SDS011;4236;54.504;9.588;2023-04-22T00:41:01;6.07;;;5.57;;
8397;SDS011;4236;54.504;9.588;2023-04-22T00:43:29;8.10;;;5.67;;
8397;SDS011;4236;54.504;9.588;2023-04-22T00:45:57;9.03;;;6.23;;
8397;SDS011;4236;54.504;9.588;2023-04-22T00:48:26;6.37;;;5.77;;
8397;SDS011;4236;54.504;9.588;2023-04-22T00:50:56;6.40;;;5.70;;
8397;SDS011;4236;54.504;9.588;2023-04-22T00:53:23;8.13;;;5.73;;
8397;SDS011;4236;54.504;9.588;2023-04-22T00:55:51;6.27;;;5.77;;
8397;SDS011;4236;54.504;9.588;2023-04-22T00:58:19;6.67;;;6.07;;
8397;SDS011;4236;54.504;9.588;2023-04-22T01:00:49;8.50;;;5.70;;
8397;SDS011;4236;54.504;9.588;2023-04-22T01:03:18;9.57;;;6.43;;
8397;SDS011;4236;54.504;9.588;2023-04-22T01:05:49;7.23;;;5.90;;
8397;SDS011;4236;54.504;9.588;2023-04-22T01:08:17;7.30;;;6.67;;
8397;SDS011;4236;54.504;9.588;2023-04-22T01:10:44;6.83;;;6.23;;
8397;SDS011;4236;54.504;9.588;2023-04-22T01:13:12;6.90;;;6.30;;
8397;SDS011;4236;54.504;9.588;2023-04-22T01:15:40;6.33;;;5.83;;
8397;SDS011;4236;54.504;9.588;2023-04-22T01:18:07;6.47;;;5.97;;
8397;SDS011;4236;54.504;9.588;2023-04-22T01:20:36;7.80;;;5.63;;
8397;SDS011;4236;54.504;9.588;2023-04-22T01:23:05;7.23;;;6.63;;
8397;SDS011;4236;54.504;9.588;2023-04-22T01:25:41;6.70;;;6.10;;
8397;SDS011;4236;54.504;9.588;2023-04-22T01:28:09;6.77;;;6.10;;
8397;SDS011;4236;54.504;9.588;2023-04-22T01:30:37;6.67;;;6.23;;
8397;SDS011;4236;54.504;9.588;2023-04-22T01:33:05;11.30;;;6.33;;
8397;SDS011;4236;54.504;9.588;2023-04-22T01:35:34;7.63;;;6.77;;
8397;SDS011;4236;54.504;9.588;2023-04-22T01:38:03;8.77;;;7.23;;
8397;SDS011;4236;54.504;9.588;2023-04-22T01:40:32;9.90;;;7.40;;
8397;SDS011;4236;54.504;9.588;2023-04-22T01:43:01;12.20;;;7.00;;
8397;SDS011;4236;54.504;9.588;2023-04-22T01:45:29;6.77;;;6.30;;
8397;SDS011;4236;54.504;9.588;2023-04-22T01:47:57;6.80;;;6.20;;
8397;SDS011;4236;54.504;9.588;2023-04-22T01:50:25;7.90;;;6.43;;
8397;SDS011;4236;54.504;9.588;2023-04-22T01:52:53;9.40;;;5.63;;
8397;SDS011;4236;54.504;9.588;2023-04-22T01:55:21;6.53;;;6.10;;
8397;SDS011;4236;54.504;9.588;2023-04-22T01:57:50;10.27;;;6.90;;
8397;SDS011;4236;54.504;9.588;2023-04-22T02:00:18;7.10;;;6.40;;
8397;SDS011;4236;54.504;9.588;2023-04-22T02:02:45;7.57;;;6.80;;
8397;SDS011;4236;54.504;9.588;2023-04-22T02:05:14;9.90;;;6.80;;
8397;SDS011;4236;54.504;9.588;2023-04-22T02:07:42;7.37;;;6.70;;
8397;SDS011;4236;54.504;9.588;2023-04-22T02:10:10;7.13;;;6.20;;
8397;SDS011;4236;54.504;9.588;2023-04-22T02:12:38;7.27;;;6.77;;
8397;SDS011;4236;54.504;9.588;2023-04-22T02:15:07;10.53;;;7.30;;
8397;SDS011;4236;54.504;9.588;2023-04-22T02:17:36;8.10;;;6.83;;
8397;SDS011;4236;54.504;9.588;2023-04-22T02:20:04;7.57;;;6.87;;
8397;SDS011;4236;54.504;9.588;2023-04-22T02:22:33;7.13;;;6.47;;
8397;SDS011;4236;54.504;9.588;2023-04-22T02:25:01;7.70;;;6.83;;
8397;SDS011;4236;54.504;9.588;2023-04-22T02:27:28;7.57;;;6.90;;
8397;SDS011;4236;54.504;9.588;2023-04-22T02:29:56;7.13;;;6.53;;
8397;SDS011;4236;54.504;9.588;2023-04-22T02:32:25;7.93;;;7.43;;
8397;SDS011;4236;54.504;9.588;2023-04-22T02:34:53;7.60;;;6.80;;
8397;SDS011;4236;54.504;9.588;2023-04-22T02:37:21;6.73;;;6.23;;
8397;SDS011;4236;54.504;9.588;2023-04-22T02:39:48;8.43;;;7.73;;
8397;SDS011;4236;54.504;9.588;2023-04-22T02:42:16;10.17;;;7.67;;
8397;SDS011;4236;54.504;9.588;2023-04-22T02:44:44;8.93;;;7.40;;
8397;SDS011;4236;54.504;9.588;2023-04-22T02:47:11;7.83;;;6.97;;
8397;SDS011;4236;54.504;9.588;2023-04-22T02:49:41;7.67;;;6.90;;
8397;SDS011;4236;54.504;9.588;2023-04-22T02:52:08;13.23;;;7.83;;
8397;SDS011;4236;54.504;9.588;2023-04-22T02:54:36;7.17;;;6.50;;
8397;SDS011;4236;54.504;9.588;2023-04-22T02:57:04;8.10;;;7.43;;
8397;SDS011;4236;54.504;9.588;2023-04-22T02:59:31;7.83;;;7.07;;
8397;SDS011;4236;54.504;9.588;2023-04-22T03:02:00;7.97;;;7.17;;
8397;SDS011;4236;54.504;9.588;2023-04-22T03:04:31;8.23;;;7.60;;
8397;SDS011;4236;54.504;9.588;2023-04-22T03:07:01;9.50;;;7.50;;
8397;SDS011;4236;54.504;9.588;2023-04-22T03:09:29;9.07;;;8.10;;
8397;SDS011;4236;54.504;9.588;2023-04-22T03:11:57;8.90;;;8.13;;
8397;SDS011;4236;54.504;9.588;2023-04-22T03:14:24;8.67;;;8.00;;
8397;SDS011;4236;54.504;9.588;2023-04-22T03:16:52;9.17;;;8.30;;
8397;SDS011;4236;54.504;9.588;2023-04-22T03:19:19;9.43;;;7.33;;
8397;SDS011;4236;54.504;9.588;2023-04-22T03:21:47;8.90;;;7.67;;
8397;SDS011;4236;54.504;9.588;2023-04-22T03:24:16;8.13;;;7.53;;
8397;SDS011;4236;54.504;9.588;2023-04-22T03:26:44;9.83;;;8.13;;
8397;SDS011;4236;54.504;9.588;2023-04-22T03:29:11;9.23;;;8.43;;
8397;SDS011;4236;54.504;9.588;2023-04-22T03:31:39;10.30;;;8.40;;
8397;SDS011;4236;54.504;9.588;2023-04-22T03:34:08;8.33;;;7.53;;
8397;SDS011;4236;54.504;9.588;2023-04-22T03:36:35;10.93;;;8.23;;
8397;SDS011;4236;54.504;9.588;2023-04-22T03:39:03;9.93;;;8.63;;
8397;SDS011;4236;54.504;9.588;2023-04-22T03:41:32;8.30;;;7.50;;
8397;SDS011;4236;54.504;9.588;2023-04-22T03:44:00;8.83;;;8.00;;
8397;SDS011;4236;54.504;9.588;2023-04-22T03:46:28;9.33;;;8.50;;
8397;SDS011;4236;54.504;9.588;2023-04-22T03:48:55;9.37;;;8.37;;
8397;SDS011;4236;54.504;9.588;2023-04-22T03:51:23;9.57;;;8.67;;
8397;SDS011;4236;54.504;9.588;2023-04-22T03:53:51;13.20;;;9.77;;
8397;SDS011;4236;54.504;9.588;2023-04-22T03:56:18;12.80;;;9.10;;
8397;SDS011;4236;54.504;9.588;2023-04-22T03:58:48;13.47;;;8.97;;
8397;SDS011;4236;54.504;9.588;2023-04-22T04:01:15;11.40;;;10.20;;
8397;SDS011;4236;54.504;9.588;2023-04-22T04:03:43;11.93;;;9.87;;
8397;SDS011;4236;54.504;9.588;2023-04-22T04:06:11;14.03;;;10.70;;
8397;SDS011;4236;54.504;9.588;2023-04-22T04:08:39;12.77;;;9.97;;
8397;SDS011;4236;54.504;9.588;2023-04-22T04:11:07;10.10;;;9.10;;
8397;SDS011;4236;54.504;9.588;2023-04-22T04:13:36;11.00;;;10.03;;
8397;SDS011;4236;54.504;9.588;2023-04-22T04:16:05;10.70;;;9.77;;
8397;SDS011;4236;54.504;9.588;2023-04-22T04:18:33;12.00;;;10.43;;
8397;SDS011;4236;54.504;9.588;2023-04-22T04:21:01;11.20;;;9.90;;
8397;SDS011;4236;54.504;9.588;2023-04-22T04:23:29;9.60;;;8.80;;
8397;SDS011;4236;54.504;9.588;2023-04-22T04:25:57;9.13;;;8.20;;
8397;SDS011;4236;54.504;9.588;2023-04-22T04:28:27;10.50;;;9.70;;
8397;SDS011;4236;54.504;9.588;2023-04-22T04:30:57;12.53;;;10.20;;
8397;SDS011;4236;54.504;9.588;2023-04-22T04:33:26;15.10;;;13.70;;
8397;SDS011;4236;54.504;9.588;2023-04-22T04:35:54;10.60;;;9.70;;
8397;SDS011;4236;54.504;9.588;2023-04-22T04:38:21;15.13;;;13.63;;
8397;SDS011;4236;54.504;9.588;2023-04-22T04:40:50;17.03;;;15.40;;
8397;SDS011;4236;54.504;9.588;2023-04-22T04:43:19;27.97;;;25.37;;
8397;SDS011;4236;54.504;9.588;2023-04-22T04:45:50;11.90;;;10.93;;
8397;SDS011;4236;54.504;9.588;2023-04-22T04:48:18;13.57;;;12.37;;
8397;SDS011;4236;54.504;9.588;2023-04-22T04:50:51;16.00;;;10.27;;
8397;SDS011;4236;54.504;9.588;2023-04-22T04:53:20;10.97;;;9.97;;
8397;SDS011;4236;54.504;9.588;2023-04-22T04:55:48;10.47;;;9.47;;
8397;SDS011;4236;54.504;9.588;2023-04-22T04:58:15;10.53;;;9.50;;
8397;SDS011;4236;54.504;9.588;2023-04-22T05:00:43;10.10;;;9.30;;
8397;SDS011;4236;54.504;9.588;2023-04-22T05:03:10;10.37;;;9.57;;
8397;SDS011;4236;54.504;9.588;2023-04-22T05:05:39;9.20;;;8.30;;
8397;SDS011;4236;54.504;9.588;2023-04-22T05:08:08;9.77;;;8.80;;
8397;SDS011;4236;54.504;9.588;2023-04-22T05:10:35;9.43;;;8.53;;
8397;SDS011;4236;54.504;9.588;2023-04-22T05:13:03;9.23;;;8.53;;
8397;SDS011;4236;54.504;9.588;2023-04-22T05:15:31;8.50;;;7.70;;
8397;SDS011;4236;54.504;9.588;2023-04-22T05:17:59;10.03;;;9.17;;
8397;SDS011;4236;54.504;9.588;2023-04-22T05:20:27;9.40;;;8.60;;
8397;SDS011;4236;54.504;9.588;2023-04-22T05:22:54;8.07;;;7.57;;
8397;SDS011;4236;54.504;9.588;2023-04-22T05:25:23;9.87;;;8.90;;
8397;SDS011;4236;54.504;9.588;2023-04-22T05:27:51;9.17;;;8.50;;
8397;SDS011;4236;54.504;9.588;2023-04-22T05:30:18;8.00;;;7.20;;
8397;SDS011;4236;54.504;9.588;2023-04-22T05:32:46;8.40;;;7.50;;
8397;SDS011;4236;54.504;9.588;2023-04-22T05:35:14;9.47;;;8.60;;
8397;SDS011;4236;54.504;9.588;2023-04-22T05:37:42;9.60;;;8.57;;
8397;SDS011;4236;54.504;9.588;2023-04-22T05:40:10;8.80;;;7.63;;
8397;SDS011;4236;54.504;9.588;2023-04-22T05:42:39;6.90;;;6.40;;
8397;SDS011;4236;54.504;9.588;2023-04-22T05:45:07;7.60;;;7.10;;
8397;SDS011;4236;54.504;9.588;2023-04-22T05:47:35;9.40;;;8.03;;
8397;SDS011;4236;54.504;9.588;2023-04-22T05:50:03;7.37;;;6.77;;
8397;SDS011;4236;54.504;9.588;2023-04-22T05:52:32;9.40;;;7.73;;
8397;SDS011;4236;54.504;9.588;2023-04-22T05:54:59;8.87;;;8.17;;
8397;SDS011;4236;54.504;9.588;2023-04-22T05:57:27;9.87;;;8.67;;
8397;SDS011;4236;54.504;9.588;2023-04-22T05:59:56;8.47;;;7.77;;
8397;SDS011;4236;54.504;9.588;2023-04-22T06:02:24;9.30;;;8.40;;
8397;SDS011;4236;54.504;9.588;2023-04-22T06:04:52;8.83;;;8.10;;
8397;SDS011;4236;54.504;9.588;2023-04-22T06:07:21;8.40;;;7.70;;
8397;SDS011;4236;54.504;9.588;2023-04-22T06:09:48;8.70;;;8.00;;
8397;SDS011;4236;54.504;9.588;2023-04-22T06:12:29;8.73;;;8.07;;
8397;SDS011;4236;54.504;9.588;2023-04-22T06:14:58;9.13;;;8.43;;
8397;SDS011;4236;54.504;9.588;2023-04-22T06:17:25;8.70;;;8.00;;
8397;SDS011;4236;54.504;9.588;2023-04-22T06:19:53;9.33;;;8.63;;
8397;SDS011;4236;54.504;9.588;2023-04-22T06:22:21;8.93;;;8.23;;
8397;SDS011;4236;54.504;9.588;2023-04-22T06:24:48;8.97;;;8.10;;
8397;SDS011;4236;54.504;9.588;2023-04-22T06:27:16;10.00;;;9.10;;
8397;SDS011;4236;54.504;9.588;2023-04-22T06:29:45;9.43;;;8.50;;
8397;SDS011;4236;54.504;9.588;2023-04-22T06:32:13;10.23;;;9.20;;
8397;SDS011;4236;54.504;9.588;2023-04-22T06:34:41;10.43;;;9.63;;
8397;SDS011;4236;54.504;9.588;2023-04-22T06:37:09;9.20;;;8.50;;
8397;SDS011;4236;54.504;9.588;2023-04-22T06:39:37;9.07;;;8.37;;
8397;SDS011;4236;54.504;9.588;2023-04-22T06:42:06;9.20;;;8.40;;
8397;SDS011;4236;54.504;9.588;2023-04-22T06:44:34;9.40;;;8.60;;
8397;SDS011;4236;54.504;9.588;2023-04-22T06:47:01;9.17;;;8.27;;
8397;SDS011;4236;54.504;9.588;2023-04-22T06:49:30;10.03;;;8.33;;
8397;SDS011;4236;54.504;9.588;2023-04-22T06:51:58;9.73;;;8.93;;
8397;SDS011;4236;54.504;9.588;2023-04-22T06:54:26;9.87;;;8.20;;
8397;SDS011;4236;54.504;9.588;2023-04-22T06:56:54;9.33;;;8.63;;
8397;SDS011;4236;54.504;9.588;2023-04-22T06:59:22;10.77;;;9.83;;
8397;SDS011;4236;54.504;9.588;2023-04-22T07:01:50;9.30;;;8.23;;
8397;SDS011;4236;54.504;9.588;2023-04-22T07:04:18;9.20;;;8.40;;
8397;SDS011;4236;54.504;9.588;2023-04-22T07:06:47;9.20;;;8.53;;
8397;SDS011;4236;54.504;9.588;2023-04-22T07:09:15;9.93;;;9.17;;
8397;SDS011;4236;54.504;9.588;2023-04-22T07:11:42;9.30;;;8.37;;
8397;SDS011;4236;54.504;9.588;2023-04-22T07:14:10;10.03;;;9.03;;
8397;SDS011;4236;54.504;9.588;2023-04-22T07:16:38;8.97;;;8.10;;
8397;SDS011;4236;54.504;9.588;2023-04-22T07:19:05;10.73;;;9.10;;
8397;SDS011;4236;54.504;9.588;2023-04-22T07:21:33;9.17;;;8.40;;
8397;SDS011;4236;54.504;9.588;2023-04-22T07:24:02;9.53;;;8.83;;
8397;SDS011;4236;54.504;9.588;2023-04-22T07:26:30;10.53;;;9.57;;
8397;SDS011;4236;54.504;9.588;2023-04-22T07:28:59;10.37;;;8.17;;
8397;SDS011;4236;54.504;9.588;2023-04-22T07:31:27;10.07;;;9.07;;
8397;SDS011;4236;54.504;9.588;2023-04-22T07:33:55;10.03;;;9.10;;
8397;SDS011;4236;54.504;9.588;2023-04-22T07:36:23;9.70;;;8.90;;
8397;SDS011;4236;54.504;9.588;2023-04-22T07:38:51;10.97;;;9.83;;
8397;SDS011;4236;54.504;9.588;2023-04-22T07:41:20;10.57;;;9.70;;
8397;SDS011;4236;54.504;9.588;2023-04-22T07:43:48;9.87;;;9.17;;
8397;SDS011;4236;54.504;9.588;2023-04-22T07:46:15;9.97;;;9.13;;
8397;SDS011;4236;54.504;9.588;2023-04-22T07:48:43;10.60;;;9.50;;
8397;SDS011;4236;54.504;9.588;2023-04-22T07:51:11;10.37;;;9.23;;
8397;SDS011;4236;54.504;9.588;2023-04-22T07:53:38;11.53;;;9.53;;
8397;SDS011;4236;54.504;9.588;2023-04-22T07:56:06;12.87;;;9.83;;
8397;SDS011;4236;54.504;9.588;2023-04-22T07:58:35;10.93;;;9.83;;
8397;SDS011;4236;54.504;9.588;2023-04-22T08:01:03;10.40;;;9.23;;
8397;SDS011;4236;54.504;9.588;2023-04-22T08:03:31;10.93;;;9.93;;
8397;SDS011;4236;54.504;9.588;2023-04-22T08:05:59;10.60;;;9.70;;
8397;SDS011;4236;54.504;9.588;2023-04-22T08:08:27;10.47;;;9.67;;
8397;SDS011;4236;54.504;9.588;2023-04-22T08:10:54;10.90;;;9.80;;
8397;SDS011;4236;54.504;9.588;2023-04-22T08:13:22;10.70;;;9.77;;
8397;SDS011;4236;54.504;9.588;2023-04-22T08:15:51;10.07;;;9.10;;
8397;SDS011;4236;54.504;9.588;2023-04-22T08:18:19;9.57;;;8.77;;
8397;SDS011;4236;54.504;9.588;2023-04-22T08:20:47;12.37;;;9.77;;
8397;SDS011;4236;54.504;9.588;2023-04-22T08:23:14;12.87;;;9.77;;
8397;SDS011;4236;54.504;9.588;2023-04-22T08:25:42;11.10;;;9.70;;
8397;SDS011;4236;54.504;9.588;2023-04-22T08:28:10;11.03;;;10.13;;
8397;SDS011;4236;54.504;9.588;2023-04-22T08:30:38;10.67;;;9.67;;
8397;SDS011;4236;54.504;9.588;2023-04-22T08:33:07;10.10;;;8.63;;
8397;SDS011;4236;54.504;9.588;2023-04-22T08:35:34;15.10;;;10.07;;
8397;SDS011;4236;54.504;9.588;2023-04-22T08:38:02;10.23;;;9.50;;
8397;SDS011;4236;54.504;9.588;2023-04-22T08:40:30;11.43;;;8.90;;
8397;SDS011;4236;54.504;9.588;2023-04-22T08:42:57;14.83;;;8.97;;
8397;SDS011;4236;54.504;9.588;2023-04-22T08:45:25;13.23;;;9.10;;
8397;SDS011;4236;54.504;9.588;2023-04-22T08:47:53;10.33;;;9.43;;
8397;SDS011;4236;54.504;9.588;2023-04-22T08:50:24;9.37;;;8.67;;
8397;SDS011;4236;54.504;9.588;2023-04-22T08:52:52;11.60;;;8.77;;
8397;SDS011;4236;54.504;9.588;2023-04-22T08:55:20;10.63;;;9.43;;
8397;SDS011;4236;54.504;9.588;2023-04-22T08:57:48;11.40;;;9.40;;
8397;SDS011;4236;54.504;9.588;2023-04-22T09:00:16;10.40;;;9.20;;
8397;SDS011;4236;54.504;9.588;2023-04-22T09:02:45;9.93;;;9.03;;
8397;SDS011;4236;54.504;9.588;2023-04-22T09:05:13;9.27;;;8.53;;
8397;SDS011;4236;54.504;9.588;2023-04-22T09:07:43;10.37;;;9.13;;
8397;SDS011;4236;54.504;9.588;2023-04-22T09:10:11;10.00;;;9.20;;
8397;SDS011;4236;54.504;9.588;2023-04-22T09:12:39;9.30;;;8.40;;
8397;SDS011;4236;54.504;9.588;2023-04-22T09:15:07;10.07;;;8.10;;
8397;SDS011;4236;54.504;9.588;2023-04-22T09:17:36;12.13;;;9.07;;
8397;SDS011;4236;54.504;9.588;2023-04-22T09:20:05;9.00;;;8.07;;
8397;SDS011;4236;54.504;9.588;2023-04-22T09:22:38;9.87;;;9.13;;
8397;SDS011;4236;54.504;9.588;2023-04-22T09:25:15;12.50;;;9.50;;
8397;SDS011;4236;54.504;9.588;2023-04-22T09:27:46;9.47;;;8.57;;
8397;SDS011;4236;54.504;9.588;2023-04-22T09:30:15;9.47;;;7.90;;
8397;SDS011;4236;54.504;9.588;2023-04-22T09:32:50;11.93;;;8.70;;
8397;SDS011;4236;54.504;9.588;2023-04-22T09:35:26;9.50;;;8.80;;
8397;SDS011;4236;54.504;9.588;2023-04-22T09:37:55;9.17;;;8.43;;
8397;SDS011;4236;54.504;9.588;2023-04-22T09:40:26;13.50;;;9.10;;
8397;SDS011;4236;54.504;9.588;2023-04-22T09:42:54;11.67;;;9.30;;
8397;SDS011;4236;54.504;9.588;2023-04-22T09:45:24;11.17;;;8.97;;
8397;SDS011;4236;54.504;9.588;2023-04-22T09:47:56;11.50;;;8.73;;
8397;SDS011;4236;54.504;9.588;2023-04-22T09:50:27;10.37;;;8.70;;
8397;SDS011;4236;54.504;9.588;2023-04-22T09:52:56;9.10;;;8.40;;
8397;SDS011;4236;54.504;9.588;2023-04-22T09:55:28;14.33;;;9.00;;
8397;SDS011;4236;54.504;9.588;2023-04-22T09:58:02;10.30;;;9.37;;
8397;SDS011;4236;54.504;9.588;2023-04-22T10:00:32;10.20;;;9.30;;
8397;SDS011;4236;54.504;9.588;2023-04-22T10:03:01;11.30;;;10.30;;
8397;SDS011;4236;54.504;9.588;2023-04-22T10:05:28;14.43;;;9.73;;
8397;SDS011;4236;54.504;9.588;2023-04-22T10:07:56;10.57;;;9.33;;
8397;SDS011;4236;54.504;9.588;2023-04-22T10:10:24;9.90;;;9.07;;
8397;SDS011;4236;54.504;9.588;2023-04-22T10:12:53;9.90;;;9.00;;
8397;SDS011;4236;54.504;9.588;2023-04-22T10:15:21;9.17;;;8.47;;
8397;SDS011;4236;54.504;9.588;2023-04-22T10:17:52;10.17;;;9.07;;
8397;SDS011;4236;54.504;9.588;2023-04-22T10:20:22;9.73;;;8.87;;
8397;SDS011;4236;54.504;9.588;2023-04-22T10:22:51;15.37;;;9.57;;
8397;SDS011;4236;54.504;9.588;2023-04-22T10:25:20;9.33;;;8.40;;
8397;SDS011;4236;54.504;9.588;2023-04-22T10:27:54;8.60;;;8.00;;
8397;SDS011;4236;54.504;9.588;2023-04-22T10:30:28;9.43;;;8.70;;
8397;SDS011;4236;54.504;9.588;2023-04-22T10:36:04;11.40;;;9.30;;
8397;SDS011;4236;54.504;9.588;2023-04-22T10:38:33;9.10;;;8.30;;
8397;SDS011;4236;54.504;9.588;2023-04-22T10:41:01;10.07;;;9.23;;
8397;SDS011;4236;54.504;9.588;2023-04-22T10:43:46;11.10;;;8.97;;
8397;SDS011;4236;54.504;9.588;2023-04-22T10:49:21;11.00;;;8.60;;
8397;SDS011;4236;54.504;9.588;2023-04-22T10:51:51;11.57;;;8.53;;
8397;SDS011;4236;54.504;9.588;2023-04-22T10:57:28;9.07;;;7.93;;
8397;SDS011;4236;54.504;9.588;2023-04-22T11:00:15;8.13;;;7.60;;
8397;SDS011;4236;54.504;9.588;2023-04-22T11:02:44;8.60;;;7.90;;
8397;SDS011;4236;54.504;9.588;2023-04-22T11:05:20;8.33;;;7.47;;
8397;SDS011;4236;54.504;9.588;2023-04-22T11:07:52;10.27;;;8.20;;
8397;SDS011;4236;54.504;9.588;2023-04-22T11:10:34;8.33;;;7.63;;
8397;SDS011;4236;54.504;9.588;2023-04-22T11:13:09;9.80;;;8.90;;
8397;SDS011;4236;54.504;9.588;2023-04-22T11:15:43;9.50;;;8.80;;
8397;SDS011;4236;54.504;9.588;2023-04-22T11:18:16;9.13;;;8.40;;
8397;SDS011;4236;54.504;9.588;2023-04-22T11:20:46;8.87;;;8.27;;
8397;SDS011;4236;54.504;9.588;2023-04-22T11:23:16;8.90;;;8.07;;
8397;SDS011;4236;54.504;9.588;2023-04-22T11:25:45;8.77;;;8.10;;
8397;SDS011;4236;54.504;9.588;2023-04-22T11:28:13;11.40;;;8.40;;
8397;SDS011;4236;54.504;9.588;2023-04-22T11:30:40;8.73;;;7.90;;
8397;SDS011;4236;54.504;9.588;2023-04-22T11:33:13;7.00;;;6.50;;
8397;SDS011;4236;54.504;9.588;2023-04-22T11:35:41;7.30;;;6.70;;
8397;SDS011;4236;54.504;9.588;2023-04-22T11:38:09;7.97;;;7.10;;
8397;SDS011;4236;54.504;9.588;2023-04-22T11:40:40;6.67;;;6.27;;
8397;SDS011;4236;54.504;9.588;2023-04-22T11:43:13;9.47;;;8.17;;
8397;SDS011;4236;54.504;9.588;2023-04-22T11:45:44;9.60;;;7.17;;
8397;SDS011;4236;54.504;9.588;2023-04-22T11:48:15;8.87;;;6.97;;
8397;SDS011;4236;54.504;9.588;2023-04-22T11:50:42;9.57;;;8.47;;
8397;SDS011;4236;54.504;9.588;2023-04-22T11:53:13;10.47;;;7.97;;
8397;SDS011;4236;54.504;9.588;2023-04-22T11:55:42;11.63;;;7.70;;
8397;SDS011;4236;54.504;9.588;2023-04-22T11:58:11;9.57;;;7.67;;
8397;SDS011;4236;54.504;9.588;2023-04-22T12:00:41;8.30;;;7.43;;
8397;SDS011;4236;54.504;9.588;2023-04-22T12:03:12;7.93;;;7.43;;
8397;SDS011;4236;54.504;9.588;2023-04-22T12:05:43;6.40;;;5.90;;
8397;SDS011;4236;54.504;9.588;2023-04-22T12:08:13;6.83;;;6.27;;
8397;SDS011;4236;54.504;9.588;2023-04-22T12:10:43;8.23;;;7.60;;
8397;SDS011;4236;54.504;9.588;2023-04-22T12:13:19;10.40;;;8.53;;
8397;SDS011;4236;54.504;9.588;2023-04-22T12:15:51;8.00;;;7.30;;
8397;SDS011;4236;54.504;9.588;2023-04-22T12:18:27;8.03;;;7.37;;
8397;SDS011;4236;54.504;9.588;2023-04-22T12:20:59;7.97;;;7.33;;
8397;SDS011;4236;54.504;9.588;2023-04-22T12:23:27;7.90;;;7.07;;
8397;SDS011;4236;54.504;9.588;2023-04-22T12:25:55;6.83;;;6.30;;
8397;SDS011;4236;54.504;9.588;2023-04-22T12:28:22;9.87;;;6.53;;
8397;SDS011;4236;54.504;9.588;2023-04-22T12:30:51;7.53;;;6.93;;
8397;SDS011;4236;54.504;9.588;2023-04-22T12:33:18;5.60;;;5.30;;
8397;SDS011;4236;54.504;9.588;2023-04-22T12:35:46;6.07;;;5.43;;
8397;SDS011;4236;54.504;9.588;2023-04-22T12:38:19;6.10;;;5.60;;
8397;SDS011;4236;54.504;9.588;2023-04-22T12:40:46;5.70;;;5.23;;
8397;SDS011;4236;54.504;9.588;2023-04-22T12:43:14;6.30;;;5.77;;
8397;SDS011;4236;54.504;9.588;2023-04-22T12:45:42;5.17;;;4.93;;
8397;SDS011;4236;54.504;9.588;2023-04-22T12:48:10;5.77;;;5.20;;
8397;SDS011;4236;54.504;9.588;2023-04-22T12:50:37;5.50;;;4.90;;
8397;SDS011;4236;54.504;9.588;2023-04-22T12:53:05;5.53;;;5.23;;
8397;SDS011;4236;54.504;9.588;2023-04-22T12:55:35;6.00;;;5.57;;
8397;SDS011;4236;54.504;9.588;2023-04-22T12:58:02;6.00;;;5.70;;
8397;SDS011;4236;54.504;9.588;2023-04-22T13:00:30;8.20;;;5.93;;
8397;SDS011;4236;54.504;9.588;2023-04-22T13:02:58;5.70;;;5.30;;
8397;SDS011;4236;54.504;9.588;2023-04-22T13:05:26;6.10;;;5.80;;
8397;SDS011;4236;54.504;9.588;2023-04-22T13:07:54;6.17;;;5.67;;
8397;SDS011;4236;54.504;9.588;2023-04-22T13:10:32;9.00;;;5.87;;
8397;SDS011;4236;54.504;9.588;2023-04-22T13:13:01;6.33;;;6.03;;
8397;SDS011;4236;54.504;9.588;2023-04-22T13:15:44;7.07;;;6.40;;
8397;SDS011;4236;54.504;9.588;2023-04-22T13:18:12;6.77;;;6.17;;
8397;SDS011;4236;54.504;9.588;2023-04-22T13:20:41;6.13;;;5.77;;
8397;SDS011;4236;54.504;9.588;2023-04-22T13:23:09;9.67;;;6.77;;
8397;SDS011;4236;54.504;9.588;2023-04-22T13:25:38;9.83;;;7.10;;
8397;SDS011;4236;54.504;9.588;2023-04-22T13:28:07;7.33;;;6.03;;
8397;SDS011;4236;54.504;9.588;2023-04-22T13:30:36;7.53;;;6.60;;
8397;SDS011;4236;54.504;9.588;2023-04-22T13:33:04;7.67;;;5.67;;
8397;SDS011;4236;54.504;9.588;2023-04-22T13:35:31;8.77;;;6.20;;
8397;SDS011;4236;54.504;9.588;2023-04-22T13:37:59;6.60;;;5.60;;
8397;SDS011;4236;54.504;9.588;2023-04-22T13:40:27;7.10;;;6.60;;
8397;SDS011;4236;54.504;9.588;2023-04-22T13:42:55;6.80;;;6.27;;
8397;SDS011;4236;54.504;9.588;2023-04-22T13:45:24;7.00;;;5.73;;
8397;SDS011;4236;54.504;9.588;2023-04-22T13:47:52;6.90;;;6.47;;
8397;SDS011;4236;54.504;9.588;2023-04-22T13:50:21;7.37;;;6.87;;
8397;SDS011;4236;54.504;9.588;2023-04-22T13:52:49;6.83;;;6.37;;
8397;SDS011;4236;54.504;9.588;2023-04-22T13:55:17;6.63;;;6.07;;
8397;SDS011;4236;54.504;9.588;2023-04-22T13:57:45;6.67;;;6.20;;
8397;SDS011;4236;54.504;9.588;2023-04-22T14:00:13;6.57;;;6.00;;
8397;SDS011;4236;54.504;9.588;2023-04-22T14:02:42;7.70;;;7.00;;
8397;SDS011;4236;54.504;9.588;2023-04-22T14:05:11;7.00;;;6.40;;
8397;SDS011;4236;54.504;9.588;2023-04-22T14:07:38;8.13;;;7.00;;
8397;SDS011;4236;54.504;9.588;2023-04-22T14:10:06;7.93;;;6.63;;
8397;SDS011;4236;54.504;9.588;2023-04-22T14:12:37;6.60;;;5.90;;
8397;SDS011;4236;54.504;9.588;2023-04-22T14:15:05;7.73;;;6.67;;
8397;SDS011;4236;54.504;9.588;2023-04-22T14:17:35;12.73;;;7.10;;
8397;SDS011;4236;54.504;9.588;2023-04-22T14:20:05;5.77;;;5.43;;
8397;SDS011;4236;54.504;9.588;2023-04-22T14:22:36;9.20;;;6.47;;
8397;SDS011;4236;54.504;9.588;2023-04-22T14:25:05;7.23;;;6.37;;
8397;SDS011;4236;54.504;9.588;2023-04-22T14:27:33;8.37;;;6.83;;
8397;SDS011;4236;54.504;9.588;2023-04-22T14:30:01;7.60;;;6.90;;
8397;SDS011;4236;54.504;9.588;2023-04-22T14:32:31;6.97;;;6.47;;
8397;SDS011;4236;54.504;9.588;2023-04-22T14:34:58;7.20;;;6.40;;
8397;SDS011;4236;54.504;9.588;2023-04-22T14:37:28;6.73;;;6.13;;
8397;SDS011;4236;54.504;9.588;2023-04-22T14:39:56;6.30;;;5.90;;
8397;SDS011;4236;54.504;9.588;2023-04-22T14:42:24;6.90;;;6.27;;
8397;SDS011;4236;54.504;9.588;2023-04-22T14:44:52;6.13;;;5.63;;
8397;SDS011;4236;54.504;9.588;2023-04-22T14:47:20;6.63;;;6.13;;
8397;SDS011;4236;54.504;9.588;2023-04-22T14:49:47;6.97;;;6.37;;
8397;SDS011;4236;54.504;9.588;2023-04-22T14:52:15;7.13;;;6.53;;
8397;SDS011;4236;54.504;9.588;2023-04-22T14:54:44;10.50;;;9.23;;
8397;SDS011;4236;54.504;9.588;2023-04-22T14:57:16;7.40;;;6.83;;
8397;SDS011;4236;54.504;9.588;2023-04-22T14:59:44;9.27;;;6.10;;
8397;SDS011;4236;54.504;9.588;2023-04-22T15:02:12;9.80;;;6.30;;
8397;SDS011;4236;54.504;9.588;2023-04-22T15:04:42;8.43;;;6.90;;
8397;SDS011;4236;54.504;9.588;2023-04-22T15:07:10;7.20;;;6.43;;
8397;SDS011;4236;54.504;9.588;2023-04-22T15:09:38;14.37;;;7.17;;
8397;SDS011;4236;54.504;9.588;2023-04-22T15:12:08;10.67;;;7.10;;
8397;SDS011;4236;54.504;9.588;2023-04-22T15:14:36;6.93;;;6.50;;
8397;SDS011;4236;54.504;9.588;2023-04-22T15:17:04;6.50;;;6.10;;
8397;SDS011;4236;54.504;9.588;2023-04-22T15:19:32;10.30;;;6.70;;
8397;SDS011;4236;54.504;9.588;2023-04-22T15:22:00;5.83;;;5.43;;
8397;SDS011;4236;54.504;9.588;2023-04-22T15:24:28;8.87;;;6.00;;
8397;SDS011;4236;54.504;9.588;2023-04-22T15:26:56;6.50;;;5.97;;
8397;SDS011;4236;54.504;9.588;2023-04-22T15:29:26;7.03;;;6.33;;